KOUN/OUN METAR and TAF weather

Enter ICAO airport designator
Station Type Date Time Source
KOUN METAR 2019/05/21 21:45 UTC NOAA

KOUN 212145Z 19020G34KT 10SM CLR 24/05 A2948


Station Type Date Time Source
KOUN Decoded METAR 2019/05/21 21:45 UTC NOAA

Norman / Max Westheimer, OK, United States (KOUN) 35-13N 097-27W 357M
May 21, 2019 - 05:45 PM EDT / 2019.05.21 2145 UTC
Wind: from the S (190 degrees) at 23 MPH (20 KT) gusting to 39 MPH (34 KT):0
Visibility: 10 mile(s):0
Sky conditions: clear
Temperature: 75 F (24 C)
Dew Point: 41 F (5 C)
Relative Humidity: 29%
Pressure (altimeter): 29.48 in. Hg (998 hPa)
ob: KOUN 212145Z 19020G34KT 10SM CLR 24/05 A2948
cycle: 22

Station Type Date Time Source
KOUN TAF 2019/05/21 18:27 UTC NOAA

TAF KOUN 211724Z 2118/2218 21024G34KT P6SM SCT250
FM220100 18015KT P6SM SKC

Example: see airport list